Time;durP1;ratioP1;P1;durP2;ratioP2;P2;SDS_P1;SDS_P2;PMS_P1;PMS_P2;Temp;Humidity;BMP_temperature;BMP_pressure;BME280_temperature;BME280_humidity;BME280_pressure;Samples;Min_cycle;Max_cycle;Signal;HPM_P1;HPM_P2
2022/11/28 00:01:56;;;;;;;25.03;14.90;;;5.80;90.20;;;;;;4993345;28;20194;-90
2022/11/28 00:04:22;;;;;;;23.83;14.70;;;5.70;90.20;;;;;;4994608;28;20190;-90
2022/11/28 00:06:49;;;;;;;24.57;15.03;;;5.80;90.20;;;;;;4993239;28;20209;-90
2022/11/28 00:09:16;;;;;;;21.33;14.40;;;5.80;90.20;;;;;;4994165;28;20293;-90
2022/11/28 00:11:44;;;;;;;20.90;14.43;;;5.80;90.30;;;;;;4994262;28;20201;-90
2022/11/28 00:14:11;;;;;;;21.20;14.50;;;5.70;90.30;;;;;;4993238;28;20592;-90
2022/11/28 00:16:36;;;;;;;21.23;14.70;;;5.70;90.40;;;;;;4993379;28;20194;-90
2022/11/28 00:19:04;;;;;;;22.33;14.67;;;5.80;90.40;;;;;;4993321;28;20339;-89
2022/11/28 00:21:30;;;;;;;21.67;13.63;;;5.80;90.50;;;;;;4993471;28;20288;-90
2022/11/28 00:23:56;;;;;;;21.13;13.93;;;5.80;90.50;;;;;;4993186;28;20178;-89
2022/11/28 00:26:36;;;;;;;23.90;13.77;;;5.70;90.40;;;;;;4993023;28;20202;-90
2022/11/28 00:29:04;;;;;;;21.47;15.20;;;5.70;90.50;;;;;;4993223;28;20219;-91
2022/11/28 00:31:40;;;;;;;18.93;13.97;;;5.80;90.60;;;;;;4994036;28;20692;-90
2022/11/28 00:34:08;;;;;;;18.63;14.87;;;5.80;90.50;;;;;;4993954;28;20181;-90
2022/11/28 00:36:33;;;;;;;17.60;13.43;;;5.80;90.50;;;;;;4993307;28;20233;-90
2022/11/28 00:38:59;;;;;;;26.77;14.67;;;5.70;90.60;;;;;;4994053;28;20189;-90
2022/11/28 00:41:28;;;;;;;23.97;14.17;;;5.80;90.60;;;;;;4994229;28;20205;-90
2022/11/28 00:43:54;;;;;;;18.87;13.60;;;5.80;90.60;;;;;;4992967;28;20177;-90
2022/11/28 00:46:21;;;;;;;16.07;13.50;;;5.80;90.70;;;;;;4994252;28;20205;-90
2022/11/28 00:48:47;;;;;;;18.90;14.80;;;5.80;90.70;;;;;;4993088;28;20182;-90
2022/11/28 00:51:21;;;;;;;20.67;14.50;;;5.70;90.80;;;;;;4993014;28;20232;-90
2022/11/28 00:53:49;;;;;;;19.20;13.33;;;5.70;90.80;;;;;;4994084;28;20157;-90
2022/11/28 00:56:20;;;;;;;19.97;13.37;;;5.70;90.90;;;;;;4992738;28;20194;-90
2022/11/28 00:58:48;;;;;;;20.40;13.47;;;5.70;91.00;;;;;;4992861;28;20174;-90
2022/11/28 01:01:17;;;;;;;20.70;13.93;;;5.70;91.10;;;;;;4997601;28;20714;-90
2022/11/28 01:03:43;;;;;;;20.63;13.50;;;5.60;91.20;;;;;;4997611;28;20182;-89
2022/11/28 01:06:09;;;;;;;21.47;13.07;;;5.60;91.40;;;;;;4997540;28;20304;-89
2022/11/28 01:08:36;;;;;;;18.17;13.47;;;5.60;91.50;;;;;;4997563;28;20329;-89
2022/11/28 01:11:01;;;;;;;18.67;13.40;;;5.60;91.60;;;;;;4997114;28;20639;-90
2022/11/28 01:13:27;;;;;;;15.47;13.50;;;5.50;91.60;;;;;;4998247;28;20256;-89
2022/11/28 01:15:53;;;;;;;25.27;14.70;;;5.50;91.60;;;;;;4996756;28;20252;-90
2022/11/28 01:18:19;;;;;;;19.10;13.40;;;5.60;91.70;;;;;;4996773;28;20296;-90
2022/11/28 01:20:44;;;;;;;17.87;13.80;;;5.50;91.80;;;;;;4997069;28;20236;-90
2022/11/28 01:23:10;;;;;;;20.57;14.13;;;5.60;91.80;;;;;;4999879;28;20188;-89
2022/11/28 01:25:35;;;;;;;24.37;14.17;;;5.50;91.80;;;;;;4997610;28;20721;-89
2022/11/28 01:28:01;;;;;;;21.77;13.80;;;5.50;91.80;;;;;;4996671;28;20220;-90
2022/11/28 01:30:26;;;;;;;22.33;13.60;;;5.50;91.80;;;;;;4996290;28;20174;-89
2022/11/28 01:32:52;;;;;;;20.80;13.43;;;5.50;91.80;;;;;;4997118;28;20205;-90
2022/11/28 01:35:18;;;;;;;23.67;13.63;;;5.50;91.80;;;;;;4997400;28;20235;-90
2022/11/28 01:37:44;;;;;;;20.63;13.73;;;5.50;91.80;;;;;;4997911;28;20204;-90
2022/11/28 01:40:12;;;;;;;19.33;14.40;;;5.50;91.70;;;;;;4997713;28;20190;-90
2022/11/28 01:42:38;;;;;;;19.90;13.20;;;5.60;91.60;;;;;;4997869;28;20200;-90
2022/11/28 01:45:15;;;;;;;15.70;13.17;;;5.50;91.60;;;;;;4998359;28;20205;-90
2022/11/28 01:47:41;;;;;;;19.97;14.30;;;5.50;91.60;;;;;;4998024;28;20177;-91
2022/11/28 01:50:07;;;;;;;21.57;13.13;;;5.50;91.50;;;;;;4998170;28;20253;-89
2022/11/28 01:52:36;;;;;;;18.50;12.83;;;5.50;91.50;;;;;;4997618;28;20210;-90
2022/11/28 01:55:03;;;;;;;20.00;12.97;;;5.50;91.50;;;;;;4997476;28;20205;-90
2022/11/28 01:57:29;;;;;;;20.80;13.70;;;5.50;91.50;;;;;;4997941;28;20656;-90
2022/11/28 02:00:07;;;;;;;15.83;10.90;;;5.50;91.50;;;;;;4997725;28;20188;-90
2022/11/28 02:02:44;;;;;;;18.00;13.07;;;5.50;91.40;;;;;;4997799;28;20177;-90
2022/11/28 02:05:10;;;;;;;18.67;12.17;;;5.50;91.40;;;;;;4997767;28;20237;-90
2022/11/28 02:07:37;;;;;;;18.17;12.13;;;5.50;91.20;;;;;;4997303;28;20189;-90
2022/11/28 02:10:05;;;;;;;21.23;12.00;;;5.50;91.10;;;;;;4997128;28;20185;-90
2022/11/28 02:12:54;;;;;;;18.30;12.20;;;5.50;91.10;;;;;;4996686;28;20699;-90
2022/11/28 02:15:38;;;;;;;18.67;12.03;;;5.50;91.10;;;;;;4997006;28;20198;-90
2022/11/28 02:18:37;;;;;;;15.90;12.67;;;5.50;91.00;;;;;;4996850;28;20178;-90
2022/11/28 02:21:22;;;;;;;19.60;13.13;;;5.50;91.00;;;;;;4996903;28;20212;-90
2022/11/28 02:24:34;;;;;;;19.73;12.53;;;5.50;91.00;;;;;;4996815;28;20182;-90
2022/11/28 02:27:34;;;;;;;24.23;13.47;;;5.50;91.00;;;;;;4996873;28;20205;-90
2022/11/28 02:30:20;;;;;;;16.40;12.93;;;5.50;91.00;;;;;;4997343;28;20248;-90
2022/11/28 02:33:08;;;;;;;16.87;11.27;;;5.50;91.00;;;;;;4996585;28;20217;-90
2022/11/28 02:35:49;;;;;;;22.00;12.60;;;5.50;90.80;;;;;;4996422;28;20746;-90
2022/11/28 02:38:23;;;;;;;16.10;12.30;;;5.50;90.70;;;;;;4997121;28;20177;-91
2022/11/28 02:41:07;;;;;;;17.77;12.67;;;5.50;90.50;;;;;;4997183;28;20173;-90
2022/11/28 02:43:54;;;;;;;18.37;11.70;;;5.50;90.50;;;;;;4996763;28;20173;-90
2022/11/28 02:46:28;;;;;;;15.93;12.77;;;5.50;90.40;;;;;;4997658;28;20281;-90
2022/11/28 02:49:22;;;;;;;18.73;13.37;;;5.50;90.50;;;;;;4997454;28;20182;-90
2022/11/28 02:51:54;;;;;;;20.20;12.37;;;5.50;90.30;;;;;;4993571;28;20710;-90
2022/11/28 02:54:22;;;;;;;15.03;11.93;;;5.50;90.40;;;;;;4997990;28;20181;-90
2022/11/28 02:56:52;;;;;;;15.27;11.70;;;5.50;90.40;;;;;;4996995;28;20567;-90
2022/11/28 02:59:36;;;;;;;15.13;12.20;;;5.50;90.30;;;;;;4996499;28;20174;-90
2022/11/28 03:02:04;;;;;;;17.00;12.23;;;5.60;90.20;;;;;;4996372;28;20185;-90
2022/11/28 03:05:00;;;;;;;16.70;12.43;;;5.60;90.20;;;;;;4996756;28;20213;-90
2022/11/28 03:07:57;;;;;;;12.37;11.07;;;5.50;90.10;;;;;;4997142;28;20236;-90
2022/11/28 03:10:48;;;;;;;15.80;11.50;;;5.50;90.00;;;;;;4998064;28;20216;-91
2022/11/28 03:13:38;;;;;;;17.50;11.53;;;5.50;90.10;;;;;;4997233;28;20578;-90
2022/11/28 03:16:22;;;;;;;15.90;12.10;;;5.60;90.00;;;;;;4997265;28;20194;-91
2022/11/28 03:19:37;;;;;;;14.17;11.90;;;5.50;89.90;;;;;;4996680;28;20204;-90
2022/11/28 03:22:11;;;;;;;16.20;11.70;;;5.50;90.00;;;;;;4992521;28;20189;-90
2022/11/28 03:24:47;;;;;;;17.93;12.33;;;5.40;90.00;;;;;;4996736;28;20236;-90
2022/11/28 03:27:33;;;;;;;17.13;11.57;;;5.50;90.00;;;;;;4999007;28;20174;-90
2022/11/28 03:30:24;;;;;;;13.93;11.40;;;5.60;89.70;;;;;;4996137;28;20590;-90
2022/11/28 03:32:53;;;;;;;14.97;10.53;;;5.60;89.60;;;;;;4996074;28;20687;-90
2022/11/28 03:35:24;;;;;;;16.37;10.83;;;5.60;89.50;;;;;;4996130;28;20193;-90
2022/11/28 03:37:59;;;;;;;15.07;10.90;;;5.60;89.40;;;;;;4996720;28;20201;-90
2022/11/28 03:40:32;;;;;;;22.13;11.63;;;5.60;89.40;;;;;;4996067;28;20170;-90
2022/11/28 03:43:03;;;;;;;14.90;11.00;;;5.50;89.30;;;;;;4995685;28;20206;-90
2022/11/28 03:45:33;;;;;;;13.57;11.27;;;5.60;89.30;;;;;;4995873;28;20202;-90
2022/11/28 03:48:09;;;;;;;15.03;10.67;;;5.60;89.30;;;;;;4995822;28;20182;-91
2022/11/28 03:50:42;;;;;;;16.60;11.40;;;5.60;89.20;;;;;;4995463;28;20174;-90
2022/11/28 03:53:13;;;;;;;17.53;11.00;;;5.60;89.20;;;;;;4995274;28;20216;-90
2022/11/28 03:55:52;;;;;;;14.90;10.20;;;5.60;89.10;;;;;;4994392;28;20193;-89
2022/11/28 03:58:33;;;;;;;13.60;10.43;;;5.60;89.00;;;;;;4994857;28;20177;-90
2022/11/28 04:01:13;;;;;;;14.10;10.70;;;5.50;89.00;;;;;;4995019;28;20166;-89
2022/11/28 04:04:15;;;;;;;14.93;10.00;;;5.50;89.00;;;;;;4994565;28;20181;-89
2022/11/28 04:07:15;;;;;;;13.17;10.30;;;5.40;89.20;;;;;;4993476;28;20232;-89
2022/11/28 04:09:54;;;;;;;15.27;10.30;;;5.50;89.20;;;;;;4995409;28;20185;-89
2022/11/28 04:12:33;;;;;;;12.97;11.07;;;5.50;88.90;;;;;;4994514;28;20216;-90
2022/11/28 04:15:10;;;;;;;14.63;10.40;;;5.50;88.90;;;;;;4994522;28;20225;-90
2022/11/28 04:17:45;;;;;;;16.40;10.50;;;5.50;88.90;;;;;;4995048;28;20178;-91
2022/11/28 04:20:28;;;;;;;13.77;11.50;;;5.40;88.90;;;;;;4995378;28;20223;-90
2022/11/28 04:22:59;;;;;;;13.33;10.50;;;5.40;88.90;;;;;;4995518;28;20178;-91
2022/11/28 04:25:27;;;;;;;14.17;11.67;;;5.40;88.90;;;;;;4997615;28;20716;-90
2022/11/28 04:27:58;;;;;;;15.30;10.57;;;5.40;89.00;;;;;;4996898;28;20269;-91
2022/11/28 04:30:23;;;;;;;16.63;11.37;;;5.50;89.00;;;;;;4995770;28;20206;-90
2022/11/28 04:32:54;;;;;;;19.43;10.93;;;5.50;88.80;;;;;;4994884;28;20686;-90
2022/11/28 04:35:32;;;;;;;15.60;12.00;;;5.50;88.80;;;;;;4995418;28;20205;-90
2022/11/28 04:38:00;;;;;;;14.73;10.97;;;5.50;88.70;;;;;;4995635;28;20209;-90
2022/11/28 04:40:29;;;;;;;13.83;11.23;;;5.50;88.80;;;;;;4994391;28;20714;-90
2022/11/28 04:43:07;;;;;;;14.23;10.53;;;5.50;88.70;;;;;;4994578;28;20228;-90
2022/11/28 04:46:03;;;;;;;13.03;10.43;;;5.50;88.60;;;;;;4994678;28;20197;-90
2022/11/28 04:48:28;;;;;;;17.13;11.80;;;5.50;88.50;;;;;;4993456;28;20197;-89
2022/11/28 04:50:57;;;;;;;15.87;11.13;;;5.50;88.40;;;;;;4994413;28;20173;-89
2022/11/28 04:53:35;;;;;;;16.23;10.23;;;5.50;88.30;;;;;;4994064;28;20264;-90
2022/11/28 04:56:07;;;;;;;18.33;11.83;;;5.50;88.20;;;;;;4993769;28;20288;-90
2022/11/28 04:58:44;;;;;;;18.53;11.50;;;5.50;88.10;;;;;;4994500;28;20260;-91
2022/11/28 05:01:14;;;;;;;14.23;10.77;;;5.50;88.00;;;;;;4993981;28;20173;-90
2022/11/28 05:03:40;;;;;;;21.53;11.80;;;5.50;88.10;;;;;;4994483;28;20178;-90
2022/11/28 05:06:07;;;;;;;14.70;11.10;;;5.50;88.10;;;;;;4994741;28;20281;-90
2022/11/28 05:08:33;;;;;;;18.00;11.53;;;5.50;88.20;;;;;;4994059;28;20193;-90
2022/11/28 05:10:59;;;;;;;21.10;10.90;;;5.50;88.10;;;;;;4995479;28;20193;-90
2022/11/28 05:13:24;;;;;;;13.77;11.03;;;5.50;88.10;;;;;;4994361;28;20586;-90
2022/11/28 05:15:50;;;;;;;13.30;10.90;;;5.50;88.00;;;;;;4994193;28;20217;-90
2022/11/28 05:18:15;;;;;;;14.60;10.37;;;5.50;88.00;;;;;;4994167;28;20221;-90
2022/11/28 05:20:42;;;;;;;13.00;9.73;;;5.50;87.90;;;;;;4994457;28;20178;-91
2022/11/28 05:23:07;;;;;;;16.37;11.63;;;5.50;87.90;;;;;;4994390;28;20282;-90
2022/11/28 05:25:33;;;;;;;15.73;10.83;;;5.50;87.90;;;;;;4994387;28;20241;-90
2022/11/28 05:27:58;;;;;;;12.87;10.27;;;5.50;87.80;;;;;;4993989;28;20185;-90
2022/11/28 05:30:24;;;;;;;13.27;11.60;;;5.50;87.60;;;;;;4994241;28;20636;-90
2022/11/28 05:32:49;;;;;;;15.27;10.73;;;5.60;87.50;;;;;;4994318;28;20218;-90
2022/11/28 05:35:15;;;;;;;13.90;11.13;;;5.50;87.60;;;;;;4994345;28;20563;-90
2022/11/28 05:37:41;;;;;;;12.30;11.00;;;5.50;87.50;;;;;;4994266;28;20565;-90
2022/11/28 05:40:25;;;;;;;10.87;9.77;;;5.50;87.30;;;;;;5060978;27;20612;-91
2022/11/28 05:42:51;;;;;;;12.47;11.13;;;5.60;87.20;;;;;;5027812;28;20185;-91
2022/11/28 05:45:17;;;;;;;15.47;11.83;;;5.60;87.20;;;;;;5027298;28;20215;-90
2022/11/28 05:47:42;;;;;;;16.63;10.97;;;5.60;87.20;;;;;;5028960;28;20658;-90
2022/11/28 05:50:08;;;;;;;12.77;10.47;;;5.60;87.20;;;;;;5027306;28;20181;-91
2022/11/28 05:52:34;;;;;;;14.57;10.33;;;5.60;87.20;;;;;;5028203;28;20181;-91
2022/11/28 05:55:00;;;;;;;20.73;11.20;;;5.60;87.10;;;;;;5027405;28;20181;-91
2022/11/28 05:57:28;;;;;;;18.87;11.00;;;5.60;87.00;;;;;;5027842;28;20180;-91
2022/11/28 05:59:54;;;;;;;14.43;10.83;;;5.50;87.00;;;;;;5028333;28;20658;-91
2022/11/28 06:02:19;;;;;;;13.97;10.10;;;5.60;86.90;;;;;;5027506;28;20177;-91
2022/11/28 06:04:48;;;;;;;17.83;10.97;;;5.60;86.90;;;;;;5028016;28;20550;-93
2022/11/28 06:07:13;;;;;;;16.10;10.93;;;5.60;86.90;;;;;;5027360;28;20279;-90
2022/11/28 06:09:39;;;;;;;13.47;10.83;;;5.50;86.80;;;;;;5026463;28;20266;-89
2022/11/28 06:12:08;;;;;;;14.13;10.50;;;5.60;86.90;;;;;;5027881;28;20169;-92
2022/11/28 06:14:34;;;;;;;11.30;10.17;;;5.60;86.70;;;;;;5028699;28;20177;-91
2022/11/28 06:16:59;;;;;;;11.57;10.23;;;5.50;86.80;;;;;;5029142;28;20222;-90
2022/11/28 06:19:25;;;;;;;17.43;10.50;;;5.50;86.70;;;;;;5027034;28;20189;-90
2022/11/28 06:50:19;;;;;;;16.80;10.90;;;5.70;86.20;;;;;;6092023;22;20287;-88
2022/11/28 06:52:45;;;;;;;16.17;11.63;;;5.70;86.30;;;;;;5055465;28;20168;-89
2022/11/28 06:55:10;;;;;;;14.57;11.70;;;5.70;86.30;;;;;;5055682;28;20222;-88
2022/11/28 06:57:36;;;;;;;12.17;10.80;;;5.70;86.40;;;;;;5054828;28;20183;-88
2022/11/28 07:00:03;;;;;;;13.87;10.63;;;5.70;86.40;;;;;;5054794;28;20290;-88
2022/11/28 07:02:29;;;;;;;14.00;11.90;;;5.70;86.50;;;;;;5054802;28;20263;-89
2022/11/28 07:04:54;;;;;;;15.30;11.63;;;5.80;86.40;;;;;;5054698;28;20206;-88
2022/11/28 07:07:20;;;;;;;13.60;11.73;;;5.80;86.40;;;;;;5055435;28;20282;-88
2022/11/28 07:09:46;;;;;;;13.10;10.60;;;5.80;86.50;;;;;;5055597;28;20203;-87
2022/11/28 07:12:12;;;;;;;13.73;11.03;;;5.80;86.40;;;;;;5054762;28;20199;-88
2022/11/28 07:14:37;;;;;;;15.47;12.17;;;5.80;86.40;;;;;;5054567;28;20226;-88
2022/11/28 07:17:03;;;;;;;16.43;11.57;;;5.70;86.40;;;;;;5054766;28;20199;-88
2022/11/28 07:19:28;;;;;;;14.77;11.23;;;5.80;86.50;;;;;;5055120;28;20227;-88
2022/11/28 07:21:54;;;;;;;15.53;11.20;;;5.80;86.50;;;;;;5054756;28;20176;-88
2022/11/28 07:24:20;;;;;;;13.47;11.43;;;5.80;86.40;;;;;;5054589;28;20237;-88
2022/11/28 07:26:45;;;;;;;14.53;10.93;;;5.80;86.40;;;;;;5055125;28;20215;-89
2022/11/28 07:29:16;;;;;;;13.87;11.50;;;5.80;86.50;;;;;;5054348;28;20199;-89
2022/11/28 07:31:41;;;;;;;14.80;12.27;;;5.70;86.40;;;;;;5054325;28;20214;-88
2022/11/28 07:34:08;;;;;;;16.53;11.30;;;5.70;86.50;;;;;;5054365;28;20176;-88
2022/11/28 07:36:34;;;;;;;14.80;11.00;;;5.70;86.50;;;;;;5054222;28;20686;-88
2022/11/28 07:39:01;;;;;;;17.43;12.57;;;5.80;86.40;;;;;;5054566;28;20224;-88
2022/11/28 07:41:27;;;;;;;15.33;11.83;;;5.70;86.40;;;;;;5054280;28;20558;-87
2022/11/28 07:43:56;;;;;;;16.87;11.40;;;5.70;86.20;;;;;;5054424;28;20271;-88
2022/11/28 07:46:22;;;;;;;14.03;11.67;;;5.70;86.20;;;;;;5054098;28;20275;-88
2022/11/28 07:48:48;;;;;;;13.80;12.27;;;5.70;86.30;;;;;;5054501;28;20591;-88
2022/11/28 07:51:16;;;;;;;13.67;10.67;;;5.70;86.40;;;;;;5054081;28;20248;-87
2022/11/28 07:53:42;;;;;;;15.57;11.07;;;5.70;86.50;;;;;;5054287;28;20179;-87
2022/11/28 07:56:14;;;;;;;15.23;12.50;;;5.70;86.70;;;;;;5054218;28;20192;-88
2022/11/28 07:58:41;;;;;;;18.00;10.90;;;5.70;86.80;;;;;;5053723;28;20273;-88
2022/11/28 08:01:15;;;;;;;14.37;11.57;;;5.70;86.90;;;;;;5053901;28;20184;-88
2022/11/28 08:03:43;;;;;;;20.23;10.83;;;5.70;86.90;;;;;;5053141;28;20163;-88
2022/11/28 08:06:09;;;;;;;14.83;11.80;;;5.60;87.10;;;;;;5054557;28;20259;-88
2022/11/28 08:08:34;;;;;;;15.07;11.17;;;5.60;87.30;;;;;;5054189;28;20516;-88
2022/11/28 08:11:02;;;;;;;13.77;12.20;;;5.60;87.50;;;;;;5054013;28;20218;-88
2022/11/28 08:13:28;;;;;;;19.10;12.33;;;5.50;87.70;;;;;;5054694;28;20588;-88
2022/11/28 08:15:54;;;;;;;17.50;12.33;;;5.50;87.90;;;;;;5053953;28;20199;-88
2022/11/28 08:18:19;;;;;;;21.90;13.40;;;5.60;88.10;;;;;;5053796;28;20211;-88
2022/11/28 08:20:45;;;;;;;19.73;12.40;;;5.60;88.30;;;;;;5053878;28;20226;-88
2022/11/28 08:23:10;;;;;;;13.77;11.90;;;5.50;88.50;;;;;;5053851;28;20166;-88
2022/11/28 08:25:36;;;;;;;17.33;13.23;;;5.50;88.70;;;;;;5053568;28;20192;-88
2022/11/28 08:28:02;;;;;;;19.80;12.57;;;5.50;88.80;;;;;;5053290;28;20168;-89
2022/11/28 08:30:27;;;;;;;18.33;13.23;;;5.50;88.80;;;;;;5053341;28;20177;-88
2022/11/28 08:32:53;;;;;;;21.10;13.73;;;5.40;88.90;;;;;;5053137;28;20211;-88
2022/11/28 08:35:19;;;;;;;16.83;12.00;;;5.50;89.10;;;;;;5052871;28;20245;-90
2022/11/28 08:37:44;;;;;;;18.17;13.40;;;5.40;89.10;;;;;;5053268;28;20641;-89
2022/11/28 08:40:10;;;;;;;21.93;13.03;;;5.40;89.30;;;;;;5052815;28;20199;-88
2022/11/28 08:42:36;;;;;;;18.00;13.73;;;5.40;89.40;;;;;;5053483;28;20183;-88
2022/11/28 08:45:02;;;;;;;19.40;13.73;;;5.40;89.50;;;;;;5053462;28;20290;-89
2022/11/28 08:47:27;;;;;;;17.30;13.20;;;5.40;89.60;;;;;;5053389;28;20180;-89
2022/11/28 08:49:53;;;;;;;14.63;11.87;;;5.30;89.80;;;;;;5052798;28;20676;-89
2022/11/28 08:52:19;;;;;;;19.07;13.53;;;5.30;89.90;;;;;;5052842;28;20188;-89
2022/11/28 08:54:44;;;;;;;16.70;13.27;;;5.30;90.00;;;;;;5052478;28;20669;-89
2022/11/28 08:57:10;;;;;;;27.97;14.53;;;5.30;90.00;;;;;;5052511;28;20176;-88
2022/11/28 08:59:36;;;;;;;19.83;13.30;;;5.30;90.20;;;;;;5052438;28;20196;-89
2022/11/28 09:02:01;;;;;;;18.63;13.13;;;5.30;90.30;;;;;;5052530;28;20172;-89
2022/11/28 09:04:28;;;;;;;17.10;13.07;;;5.30;90.40;;;;;;5052417;28;20175;-89
2022/11/28 09:06:53;;;;;;;19.83;13.57;;;5.30;90.50;;;;;;5052659;28;20191;-89
2022/11/28 09:09:19;;;;;;;22.03;13.73;;;5.30;90.60;;;;;;5052412;28;20653;-89
2022/11/28 09:11:45;;;;;;;18.50;14.20;;;5.30;90.60;;;;;;5052406;28;20183;-88
2022/11/28 09:14:11;;;;;;;20.80;13.60;;;5.30;90.70;;;;;;5052227;28;20180;-89
2022/11/28 09:16:38;;;;;;;22.07;14.03;;;5.30;90.90;;;;;;5052178;28;20758;-89
2022/11/28 09:19:05;;;;;;;22.00;14.00;;;5.30;91.00;;;;;;5052196;28;20245;-88
2022/11/28 09:21:31;;;;;;;21.17;14.27;;;5.30;91.00;;;;;;5052740;28;20170;-89
2022/11/28 09:23:57;;;;;;;17.70;14.40;;;5.30;91.10;;;;;;5052591;28;20185;-88
2022/11/28 09:26:24;;;;;;;18.47;13.67;;;5.30;91.10;;;;;;5052671;28;20553;-88
2022/11/28 09:28:50;;;;;;;21.73;14.57;;;5.30;91.10;;;;;;5053098;28;20206;-88
2022/11/28 09:31:17;;;;;;;17.87;14.57;;;5.30;91.10;;;;;;5052537;28;20230;-88
2022/11/28 09:33:43;;;;;;;20.33;14.00;;;5.30;91.20;;;;;;5053381;28;20502;-89
2022/11/28 09:36:12;;;;;;;17.63;14.03;;;5.30;91.30;;;;;;5052196;28;20200;-89
2022/11/28 09:38:38;;;;;;;16.80;14.07;;;5.30;91.30;;;;;;5052281;28;20196;-89
2022/11/28 09:41:26;;;;;;;19.33;14.60;;;5.30;91.40;;;;;;5052359;28;20176;-88
2022/11/28 09:44:15;;;;;;;18.27;14.13;;;5.30;91.40;;;;;;5052177;28;20168;-89
2022/11/28 09:46:41;;;;;;;19.20;14.70;;;5.30;91.50;;;;;;5051952;28;20199;-89
2022/11/28 09:49:20;;;;;;;22.67;14.83;;;5.30;91.50;;;;;;5052345;28;20245;-89
2022/11/28 09:51:50;;;;;;;20.60;14.57;;;5.30;91.60;;;;;;5051798;28;20214;-89
2022/11/28 09:54:36;;;;;;;18.77;14.70;;;5.30;91.60;;;;;;5052735;28;20218;-88
2022/11/28 09:57:07;;;;;;;17.67;12.90;;;5.30;91.60;;;;;;5051898;28;20203;-88
2022/11/28 09:59:34;;;;;;;19.73;15.33;;;5.20;91.70;;;;;;5051817;28;20199;-89
2022/11/28 10:02:14;;;;;;;21.20;15.10;;;5.20;91.80;;;;;;5051924;28;20171;-90
2022/11/28 10:04:46;;;;;;;23.23;15.00;;;5.20;91.90;;;;;;5051748;28;20256;-89
2022/11/28 10:07:42;;;;;;;20.43;15.47;;;5.20;91.90;;;;;;5051754;28;20164;-89
2022/11/28 10:10:07;;;;;;;21.83;15.63;;;5.10;91.90;;;;;;5052256;28;20191;-89
2022/11/28 10:12:50;;;;;;;21.10;15.37;;;5.20;92.00;;;;;;5051815;28;20716;-88
2022/11/28 10:15:19;;;;;;;19.87;15.17;;;5.20;92.00;;;;;;5052311;28;20196;-89
2022/11/28 10:17:59;;;;;;;21.70;14.80;;;5.20;92.10;;;;;;5051982;28;20179;-89
2022/11/28 10:20:30;;;;;;;21.23;15.33;;;5.20;92.10;;;;;;5051782;28;20568;-89
2022/11/28 10:23:26;;;;;;;20.23;14.80;;;5.20;92.10;;;;;;5051994;28;20163;-88
2022/11/28 10:25:57;;;;;;;22.70;15.13;;;5.20;92.20;;;;;;5055451;28;20677;-91
2022/11/28 10:28:31;;;;;;;20.13;14.83;;;5.10;92.20;;;;;;5058387;28;20183;-90
2022/11/28 10:31:27;;;;;;;20.50;14.77;;;5.10;92.30;;;;;;5056884;28;20171;-91
2022/11/28 10:34:13;;;;;;;23.83;15.57;;;5.10;92.30;;;;;;5055647;28;20172;-90
2022/11/28 10:36:56;;;;;;;22.57;16.50;;;5.10;92.30;;;;;;5055311;28;20198;-90
2022/11/28 10:39:24;;;;;;;19.23;15.17;;;5.00;92.30;;;;;;5056454;28;20260;-90
2022/11/28 10:42:17;;;;;;;25.97;17.37;;;5.10;92.30;;;;;;5055516;28;20179;-90
2022/11/28 10:45:18;;;;;;;22.20;16.77;;;5.10;92.40;;;;;;5055297;28;20262;-90
2022/11/28 10:48:02;;;;;;;25.10;16.13;;;5.10;92.40;;;;;;5055449;28;20160;-90
2022/11/28 10:50:52;;;;;;;22.43;16.93;;;5.10;92.40;;;;;;5055154;28;20163;-90
2022/11/28 10:53:31;;;;;;;26.73;17.03;;;5.10;92.40;;;;;;5056026;28;20171;-88
2022/11/28 10:56:28;;;;;;;26.07;17.30;;;5.10;92.50;;;;;;5054784;28;20282;-88
2022/11/28 10:59:29;;;;;;;23.67;17.17;;;5.10;92.40;;;;;;5055922;28;20244;-87
2022/11/28 11:01:56;;;;;;;23.53;16.63;;;5.10;92.40;;;;;;5055281;28;20689;-87
2022/11/28 11:04:25;;;;;;;24.83;17.10;;;5.10;92.40;;;;;;5055062;28;20187;-87
2022/11/28 11:07:18;;;;;;;31.10;17.27;;;5.10;92.30;;;;;;5054982;28;20198;-89
2022/11/28 11:09:44;;;;;;;25.53;16.67;;;5.10;92.30;;;;;;5055517;28;20172;-88
2022/11/28 11:12:39;;;;;;;23.83;16.67;;;5.10;92.30;;;;;;5055232;28;20185;-88
2022/11/28 11:15:28;;;;;;;25.53;17.00;;;5.10;92.30;;;;;;5047042;28;20556;-89
2022/11/28 11:17:54;;;;;;;22.33;16.17;;;5.10;92.30;;;;;;5054976;28;20179;-89
2022/11/28 11:20:34;;;;;;;27.67;16.50;;;5.10;92.30;;;;;;5054570;28;20196;-90
2022/11/28 11:23:11;;;;;;;25.30;18.07;;;5.10;92.30;;;;;;5054582;28;20234;-89
2022/11/28 11:25:36;;;;;;;25.43;16.57;;;5.10;92.30;;;;;;5054495;28;20198;-88
2022/11/28 11:28:03;;;;;;;26.37;17.53;;;5.10;92.30;;;;;;5054531;28;20272;-89
2022/11/28 11:30:41;;;;;;;26.87;17.33;;;5.10;92.30;;;;;;5054326;28;20168;-88
2022/11/28 11:33:15;;;;;;;28.50;17.43;;;5.00;92.30;;;;;;5054435;28;20241;-89
2022/11/28 11:35:46;;;;;;;23.77;16.57;;;5.10;92.30;;;;;;5055022;28;20202;-87
2022/11/28 11:38:27;;;;;;;25.40;17.90;;;5.10;92.30;;;;;;5054284;28;20183;-87
2022/11/28 11:40:52;;;;;;;28.60;18.93;;;5.10;92.40;;;;;;5054748;28;20190;-88
2022/11/28 11:43:34;;;;;;;22.83;16.23;;;5.00;92.30;;;;;;5054315;28;20578;-89
2022/11/28 11:46:12;;;;;;;29.07;18.67;;;5.10;92.40;;;;;;5054645;28;20190;-90
2022/11/28 11:48:45;;;;;;;25.10;17.37;;;5.10;92.40;;;;;;5053817;28;20658;-89
2022/11/28 11:51:29;;;;;;;24.80;17.07;;;5.10;92.50;;;;;;5054074;28;20201;-88
2022/11/28 11:54:04;;;;;;;24.60;16.87;;;5.10;92.40;;;;;;5054185;28;20210;-89
2022/11/28 11:56:42;;;;;;;26.03;17.10;;;5.10;92.50;;;;;;5053709;28;20215;-88
2022/11/28 11:59:17;;;;;;;33.13;17.63;;;5.10;92.40;;;;;;5055035;28;20201;-88
2022/11/28 12:01:45;;;;;;;29.53;16.80;;;5.10;92.40;;;;;;5054858;28;20514;-88
2022/11/28 12:04:36;;;;;;;29.07;18.87;;;5.10;92.50;;;;;;5054335;28;20176;-88
2022/11/28 12:07:05;;;;;;;24.13;15.67;;;5.10;92.50;;;;;;5053589;28;20194;-87
2022/11/28 12:09:44;;;;;;;29.50;17.83;;;5.10;92.50;;;;;;5053732;28;20186;-88
2022/11/28 12:12:12;;;;;;;28.23;18.70;;;5.10;92.40;;;;;;5053561;28;20604;-88
2022/11/28 12:14:38;;;;;;;30.33;18.30;;;5.10;92.50;;;;;;5053485;28;20179;-90
2022/11/28 12:17:17;;;;;;;24.63;17.27;;;5.20;92.50;;;;;;5053488;28;20199;-90
2022/11/28 12:20:08;;;;;;;25.17;17.47;;;5.20;92.50;;;;;;5053271;28;20190;-90
2022/11/28 12:22:46;;;;;;;24.77;17.07;;;5.20;92.50;;;;;;5053662;28;20258;-89
2022/11/28 12:25:27;;;;;;;26.80;17.97;;;5.20;92.40;;;;;;5053541;28;20214;-88
2022/11/28 12:28:04;;;;;;;27.83;17.23;;;5.20;92.50;;;;;;5053723;28;20163;-88
2022/11/28 12:31:01;;;;;;;27.13;17.60;;;5.20;92.50;;;;;;5054164;28;20166;-88
2022/11/28 12:33:48;;;;;;;24.27;16.40;;;5.10;92.50;;;;;;5053115;28;20164;-89
2022/11/28 12:36:18;;;;;;;23.77;17.30;;;5.20;92.50;;;;;;5052944;28;20188;-89
2022/11/28 12:38:56;;;;;;;26.73;17.70;;;5.10;92.50;;;;;;5052854;28;20207;-89
2022/11/28 12:41:51;;;;;;;29.67;18.30;;;5.10;92.50;;;;;;5052822;28;20219;-89
2022/11/28 12:44:36;;;;;;;23.63;17.07;;;5.10;92.50;;;;;;5052450;28;20214;-87
2022/11/28 12:47:28;;;;;;;26.87;18.77;;;5.10;92.50;;;;;;5053164;28;20253;-88
2022/11/28 12:49:57;;;;;;;28.77;17.87;;;5.10;92.60;;;;;;5053733;28;20203;-88
2022/11/28 12:52:43;;;;;;;28.13;18.97;;;5.10;92.60;;;;;;5052526;28;20195;-88
2022/11/28 12:55:35;;;;;;;22.53;16.43;;;5.10;92.60;;;;;;5052803;28;20200;-88
2022/11/28 12:58:09;;;;;;;29.87;18.93;;;5.10;92.60;;;;;;5052548;28;20171;-89
2022/11/28 13:00:59;;;;;;;33.70;18.17;;;5.10;92.70;;;;;;5052809;28;20178;-88
2022/11/28 13:03:43;;;;;;;26.10;18.33;;;5.20;92.70;;;;;;5053544;28;20163;-89
2022/11/28 13:06:34;;;;;;;23.97;17.73;;;5.10;92.70;;;;;;5052749;28;20199;-89
2022/11/28 13:09:21;;;;;;;27.77;18.47;;;5.10;92.80;;;;;;5053707;28;20265;-88
2022/11/28 13:12:20;;;;;;;28.13;17.93;;;5.10;92.80;;;;;;5053982;28;20212;-88
2022/11/28 13:14:55;;;;;;;26.33;17.70;;;5.10;92.80;;;;;;5052404;28;20171;-89
2022/11/28 13:17:45;;;;;;;29.00;19.17;;;5.10;92.90;;;;;;5053185;28;20190;-88
2022/11/28 13:20:27;;;;;;;30.23;18.97;;;5.10;92.90;;;;;;5033707;28;20250;-89
2022/11/28 13:23:14;;;;;;;27.67;18.30;;;5.10;93.00;;;;;;5053369;28;20606;-89
2022/11/28 13:26:07;;;;;;;24.20;18.70;;;5.10;93.00;;;;;;5052620;28;20289;-89
2022/11/28 13:28:37;;;;;;;26.47;18.10;;;5.10;93.00;;;;;;5052392;28;20615;-90
2022/11/28 13:31:25;;;;;;;32.20;18.70;;;5.10;93.00;;;;;;5052311;28;20172;-89
2022/11/28 13:33:55;;;;;;;29.87;17.97;;;5.10;93.00;;;;;;5051679;28;20187;-90
2022/11/28 13:36:39;;;;;;;24.47;17.03;;;5.10;93.00;;;;;;5052305;28;20206;-90